createdAt,value
2019-03-27T00:02:40.225Z,99.90
2019-03-27T00:08:08.049Z,99.90
2019-03-27T00:10:49.261Z,99.90
2019-03-27T00:13:30.815Z,99.90
2019-03-27T00:16:12.082Z,99.90
2019-03-27T00:18:54.250Z,99.90
2019-03-27T00:24:25.374Z,99.90
2019-03-27T00:27:05.791Z,99.90
2019-03-27T00:29:47.220Z,99.90
2019-03-27T00:35:09.987Z,99.90
2019-03-27T00:37:58.898Z,99.90
2019-03-27T00:43:44.891Z,99.90
2019-03-27T00:46:35.198Z,99.90
2019-03-27T00:49:25.262Z,99.90
2019-03-27T00:52:14.499Z,99.90
2019-03-27T00:55:04.108Z,99.90
2019-03-27T00:57:53.241Z,99.90
2019-03-27T01:01:01.223Z,99.90
2019-03-27T01:04:30.749Z,99.90
2019-03-27T01:07:21.150Z,99.90
2019-03-27T01:10:10.485Z,99.90
2019-03-27T01:13:02.274Z,99.90
2019-03-27T01:16:10.229Z,99.90
2019-03-27T01:18:59.298Z,99.90
2019-03-27T01:21:48.405Z,99.90
2019-03-27T01:24:31.062Z,99.90
2019-03-27T01:27:16.220Z,99.90
2019-03-27T01:29:57.951Z,99.90
2019-03-27T01:32:41.181Z,99.90
2019-03-27T01:35:11.625Z,99.90
2019-03-27T01:41:09.182Z,99.90
2019-03-27T01:43:58.236Z,99.90
2019-03-27T01:46:47.809Z,99.90
2019-03-27T01:49:28.984Z,99.90
2019-03-27T01:52:10.878Z,99.90
2019-03-27T01:54:53.342Z,99.90
2019-03-27T02:00:24.055Z,99.90
2019-03-27T02:05:44.655Z,99.90
2019-03-27T02:08:26.266Z,99.90
2019-03-27T02:11:07.561Z,99.90
2019-03-27T02:13:49.426Z,99.90
2019-03-27T02:16:31.012Z,99.90
2019-03-27T02:19:12.750Z,99.90
2019-03-27T02:21:54.156Z,99.90
2019-03-27T02:27:17.651Z,99.90
2019-03-27T02:29:59.527Z,99.90
2019-03-27T02:32:41.671Z,99.90
2019-03-27T02:35:26.160Z,99.90
2019-03-27T02:40:51.656Z,99.90
2019-03-27T02:46:46.678Z,99.90
2019-03-27T02:49:29.567Z,99.90
2019-03-27T02:54:55.976Z,99.90
2019-03-27T03:00:21.070Z,99.90
2019-03-27T03:03:01.394Z,99.90
2019-03-27T03:05:43.482Z,99.90
2019-03-27T03:08:24.619Z,99.90
2019-03-27T03:11:05.302Z,99.90
2019-03-27T03:13:47.597Z,99.90
2019-03-27T03:16:42.372Z,99.90
2019-03-27T03:19:12.909Z,99.90
2019-03-27T03:21:55.426Z,99.90
2019-03-27T03:24:37.251Z,99.90
2019-03-27T03:27:18.940Z,99.90
2019-03-27T03:30:00.434Z,99.90
2019-03-27T03:32:40.696Z,99.90
2019-03-27T03:35:22.555Z,99.90
2019-03-27T03:38:04.527Z,99.90
2019-03-27T03:43:25.274Z,99.90
2019-03-27T03:48:42.284Z,99.90
2019-03-27T03:51:32.099Z,99.90
2019-03-27T03:54:21.811Z,99.90
2019-03-27T03:57:11.069Z,99.90
2019-03-27T04:03:15.065Z,99.90
2019-03-27T04:06:05.070Z,99.90
2019-03-27T04:09:13.275Z,99.90
2019-03-27T04:12:02.917Z,99.90
2019-03-27T04:14:44.913Z,99.90
2019-03-27T04:17:26.539Z,99.90
2019-03-27T04:20:08.136Z,99.90
2019-03-27T04:22:49.717Z,99.90
2019-03-27T04:25:53.844Z,99.90
2019-03-27T04:28:18.083Z,99.90
2019-03-27T04:30:59.489Z,99.90
2019-03-27T04:36:30.616Z,99.90
2019-03-27T04:39:13.624Z,99.90
2019-03-27T04:41:55.323Z,99.90
2019-03-27T04:44:37.520Z,99.90
2019-03-27T04:47:31.462Z,99.90
2019-03-27T04:50:03.266Z,99.90
2019-03-27T04:52:46.127Z,99.90
2019-03-27T04:55:28.063Z,99.90
2019-03-27T05:00:55.951Z,99.90
2019-03-27T05:03:36.266Z,99.90
2019-03-27T05:06:18.249Z,99.90
2019-03-27T05:08:59.903Z,99.90
2019-03-27T05:11:41.711Z,99.90
2019-03-27T05:14:24.073Z,99.90
2019-03-27T05:19:43.968Z,99.90
2019-03-27T05:22:28.137Z,99.90
2019-03-27T05:25:09.663Z,99.90
2019-03-27T05:27:51.880Z,99.90
2019-03-27T05:30:32.215Z,99.90
2019-03-27T05:33:14.049Z,99.90
2019-03-27T05:35:55.604Z,99.90
2019-03-27T05:38:37.820Z,99.90
2019-03-27T05:41:20.189Z,99.90
2019-03-27T05:44:00.846Z,99.90
2019-03-27T05:46:43.155Z,99.90
2019-03-27T05:52:03.756Z,99.90
2019-03-27T05:57:29.952Z,99.90
2019-03-27T06:00:12.936Z,99.90
2019-03-27T06:02:53.126Z,99.90
2019-03-27T06:05:34.923Z,99.90
2019-03-27T06:08:16.480Z,99.90
2019-03-27T06:10:58.417Z,99.90
2019-03-27T06:16:32.495Z,99.90
2019-03-27T06:19:13.783Z,99.90
2019-03-27T06:21:44.371Z,99.90
2019-03-27T06:27:41.826Z,99.90
2019-03-27T06:30:31.371Z,99.90
2019-03-27T06:33:21.058Z,99.90
2019-03-27T06:36:10.854Z,99.90
2019-03-27T06:39:00.551Z,99.90
2019-03-27T06:41:50.230Z,99.90
2019-03-27T06:47:36.752Z,99.90
2019-03-27T06:50:26.562Z,99.90
2019-03-27T06:53:16.078Z,99.90
2019-03-27T06:56:05.823Z,99.90
2019-03-27T06:58:55.708Z,99.60
2019-03-27T07:05:22.708Z,99.00
2019-03-27T07:07:45.558Z,98.80
2019-03-27T07:10:31.245Z,98.50
2019-03-27T07:13:11.607Z,98.40
2019-03-27T07:15:53.134Z,98.20
2019-03-27T07:21:23.510Z,97.90
2019-03-27T07:26:50.331Z,97.20
2019-03-27T07:32:10.415Z,96.50
2019-03-27T07:34:52.655Z,96.50
2019-03-27T07:37:36.613Z,96.20
2019-03-27T07:42:51.517Z,95.60
2019-03-27T07:45:40.749Z,95.20
2019-03-27T07:48:29.879Z,95.10
2019-03-27T07:51:13.647Z,94.80
2019-03-27T07:53:55.514Z,94.50
2019-03-27T07:56:38.735Z,94.10
2019-03-27T07:59:19.545Z,94.00
2019-03-27T08:02:03.865Z,93.40
2019-03-27T08:04:45.855Z,93.10
2019-03-27T08:07:27.293Z,93.50
2019-03-27T08:10:11.458Z,93.40
2019-03-27T08:12:41.640Z,93.40
2019-03-27T08:15:30.969Z,93.40
2019-03-27T08:18:20.216Z,92.70
2019-03-27T08:21:09.728Z,92.40
2019-03-27T08:23:58.928Z,92.20
2019-03-27T08:26:48.547Z,91.70
2019-03-27T08:29:37.969Z,91.40
2019-03-27T08:32:27.242Z,91.50
2019-03-27T08:35:16.907Z,91.30
2019-03-27T08:41:53.087Z,89.90
2019-03-27T08:44:42.501Z,89.50
2019-03-27T08:47:31.684Z,88.80
2019-03-27T08:50:20.834Z,88.30
2019-03-27T08:53:10.066Z,89.60
2019-03-27T08:55:58.930Z,89.70
2019-03-27T08:58:48.103Z,86.20
2019-03-27T09:01:37.575Z,86.10
2019-03-27T09:04:26.922Z,85.80
2019-03-27T09:07:09.324Z,85.00
2019-03-27T09:09:50.418Z,84.50
2019-03-27T09:12:32.396Z,84.70
2019-03-27T09:15:13.683Z,86.30
2019-03-27T09:17:57.884Z,87.10
2019-03-27T09:20:39.374Z,86.40
2019-03-27T09:23:21.005Z,88.70
2019-03-27T09:26:02.463Z,89.80
2019-03-27T09:28:43.880Z,88.70
2019-03-27T09:31:25.674Z,88.20
2019-03-27T09:34:07.686Z,86.00
2019-03-27T09:36:48.970Z,84.50
2019-03-27T09:39:30.539Z,82.30
2019-03-27T09:42:12.475Z,81.80
2019-03-27T09:44:54.296Z,81.80
2019-03-27T09:47:40.705Z,83.00
2019-03-27T09:50:24.926Z,81.10
2019-03-27T09:53:08.456Z,81.70
2019-03-27T09:58:39.724Z,80.90
2019-03-27T10:01:21.580Z,81.40
2019-03-27T10:04:02.779Z,79.40
2019-03-27T10:06:43.800Z,77.20
2019-03-27T10:09:25.056Z,78.10
2019-03-27T10:14:52.911Z,78.20
2019-03-27T10:17:37.622Z,77.20
2019-03-27T10:23:05.976Z,74.20
2019-03-27T10:28:32.090Z,74.20
2019-03-27T10:31:13.154Z,72.20
2019-03-27T10:33:43.385Z,72.50
2019-03-27T10:39:34.617Z,72.50
2019-03-27T10:42:23.477Z,70.60
2019-03-27T10:45:13.099Z,69.90
2019-03-27T10:47:43.510Z,69.00
2019-03-27T10:50:32.879Z,71.00
2019-03-27T10:53:22.154Z,71.50
2019-03-27T10:56:11.319Z,71.40
2019-03-27T10:59:14.348Z,69.60
2019-03-27T11:01:43.895Z,69.30
2019-03-27T11:04:25.640Z,68.70
2019-03-27T11:07:05.496Z,68.30
2019-03-27T11:09:47.899Z,68.50
2019-03-27T11:12:28.877Z,66.80
2019-03-27T11:15:10.884Z,65.90
2019-03-27T11:17:53.256Z,63.80
2019-03-27T11:26:22.625Z,65.40
2019-03-27T11:29:03.867Z,65.00
2019-03-27T11:31:46.142Z,64.10
2019-03-27T11:37:08.032Z,61.40
2019-03-27T11:39:39.718Z,62.70
2019-03-27T11:42:30.804Z,64.60
2019-03-27T11:45:38.443Z,64.40
2019-03-27T11:48:27.545Z,63.90
2019-03-27T11:51:16.649Z,65.70
2019-03-27T11:57:03.492Z,65.50
2019-03-27T11:59:54.226Z,66.30
2019-03-27T12:02:43.459Z,67.50
2019-03-27T12:05:33.220Z,66.50
2019-03-27T12:08:23.188Z,67.00
2019-03-27T12:11:12.571Z,67.70
2019-03-27T12:14:01.381Z,67.50
2019-03-27T12:17:09.009Z,67.10
2019-03-27T12:19:59.263Z,66.50
2019-03-27T12:22:57.647Z,66.50
2019-03-27T12:25:40.131Z,66.30
2019-03-27T12:28:29.649Z,66.30
2019-03-27T12:31:20.928Z,65.50
2019-03-27T12:37:01.264Z,65.30
2019-03-27T12:39:43.157Z,65.50
2019-03-27T12:45:19.649Z,65.60
2019-03-27T12:50:48.735Z,67.60
2019-03-27T12:53:30.625Z,69.30
2019-03-27T12:56:12.745Z,70.50
2019-03-27T12:58:55.121Z,71.10
2019-03-27T13:01:36.495Z,72.80
2019-03-27T13:06:57.573Z,73.90
2019-03-27T13:09:39.054Z,75.70
2019-03-27T13:12:20.563Z,74.20
2019-03-27T13:14:50.657Z,73.50
2019-03-27T13:17:40.034Z,75.40
2019-03-27T13:20:34.064Z,75.60
2019-03-27T13:23:24.068Z,76.20
2019-03-27T13:26:13.135Z,77.10
2019-03-27T13:28:48.860Z,77.50
2019-03-27T13:31:34.414Z,77.80
2019-03-27T13:34:24.037Z,76.20
2019-03-27T13:37:14.493Z,75.30
2019-03-27T13:40:04.070Z,74.20
2019-03-27T13:45:43.951Z,72.40
2019-03-27T13:48:32.774Z,71.20
2019-03-27T13:51:22.388Z,69.90
2019-03-27T13:54:12.246Z,70.40
2019-03-27T13:57:01.075Z,71.10
2019-03-27T14:00:09.395Z,71.80
2019-03-27T14:02:58.226Z,71.50
2019-03-27T14:05:47.326Z,71.50
2019-03-27T14:08:56.121Z,71.70
2019-03-27T14:14:49.591Z,72.40
2019-03-27T14:17:09.870Z,75.00
2019-03-27T14:23:01.103Z,76.60
2019-03-27T14:25:49.933Z,77.50
2019-03-27T14:28:39.083Z,77.30
2019-03-27T14:34:26.155Z,78.30
2019-03-27T14:37:16.909Z,77.60
2019-03-27T14:40:06.778Z,77.70
2019-03-27T14:42:55.905Z,77.50
2019-03-27T14:45:45.776Z,77.10
2019-03-27T14:48:30.783Z,76.30
2019-03-27T14:51:13.338Z,76.80
2019-03-27T14:53:55.450Z,76.40
2019-03-27T14:59:27.668Z,76.20
2019-03-27T15:02:10.842Z,75.80
2019-03-27T15:04:53.251Z,75.60
2019-03-27T15:10:17.445Z,74.20
2019-03-27T15:13:00.526Z,75.00
2019-03-27T15:15:41.656Z,73.00
2019-03-27T15:18:26.138Z,72.80
2019-03-27T15:21:08.075Z,73.30
2019-03-27T15:26:35.254Z,73.30
2019-03-27T15:29:16.855Z,73.70
2019-03-27T15:31:59.683Z,73.90
2019-03-27T15:34:29.681Z,74.30
2019-03-27T15:37:18.469Z,74.90
2019-03-27T15:40:07.610Z,74.90
2019-03-27T15:42:56.760Z,75.70
2019-03-27T15:45:45.564Z,76.80
2019-03-27T15:51:30.244Z,77.80
2019-03-27T15:54:19.329Z,78.70
2019-03-27T15:57:09.209Z,80.40
2019-03-27T15:59:58.680Z,81.40
2019-03-27T16:02:47.580Z,82.00
2019-03-27T16:05:37.388Z,82.10
2019-03-27T16:08:07.431Z,82.40
2019-03-27T16:10:57.725Z,83.30
2019-03-27T16:13:46.853Z,83.70
2019-03-27T16:16:36.026Z,83.60
2019-03-27T16:19:25.202Z,84.30
2019-03-27T16:22:14.770Z,82.80
2019-03-27T16:25:03.964Z,83.10
2019-03-27T16:27:33.985Z,80.40
2019-03-27T16:30:04.014Z,80.60
2019-03-27T16:35:51.772Z,82.40
2019-03-27T16:39:00.700Z,83.10
2019-03-27T16:41:50.471Z,83.30
2019-03-27T16:47:07.643Z,85.00
2019-03-27T16:49:50.124Z,85.20
2019-03-27T16:52:32.310Z,85.30
2019-03-27T16:55:17.977Z,85.90
2019-03-27T17:00:47.583Z,86.90
2019-03-27T17:03:29.809Z,87.60
2019-03-27T17:06:12.157Z,87.90
2019-03-27T17:08:53.660Z,88.00
2019-03-27T17:11:36.842Z,86.20
2019-03-27T17:14:19.519Z,85.70
2019-03-27T17:19:56.091Z,86.20
2019-03-27T17:25:27.446Z,85.90
2019-03-27T17:28:09.363Z,86.20
2019-03-27T17:30:50.877Z,85.00
2019-03-27T17:36:17.974Z,83.80
2019-03-27T17:44:52.216Z,85.70
2019-03-27T17:47:33.725Z,85.90
2019-03-27T17:53:06.606Z,86.50
2019-03-27T17:58:32.772Z,86.70
2019-03-27T18:03:52.288Z,87.10
2019-03-27T18:09:49.956Z,90.00
2019-03-27T18:12:20.875Z,90.60
2019-03-27T18:14:50.891Z,91.40
2019-03-27T18:17:40.963Z,92.30
2019-03-27T18:20:11.203Z,93.20
2019-03-27T18:23:00.481Z,94.20
2019-03-27T18:25:50.486Z,95.10
2019-03-27T18:29:00.990Z,95.90
2019-03-27T18:32:09.730Z,96.50
2019-03-27T18:34:59.454Z,97.30
2019-03-27T18:37:48.658Z,97.30
2019-03-27T18:40:37.492Z,97.40
2019-03-27T18:43:26.648Z,97.40
2019-03-27T18:46:16.021Z,97.40
2019-03-27T18:48:46.344Z,97.60
2019-03-27T18:51:55.351Z,97.70
2019-03-27T18:54:44.530Z,97.80
2019-03-27T18:57:33.595Z,97.90
2019-03-27T19:00:41.576Z,98.20
2019-03-27T19:06:26.185Z,97.30
2019-03-27T19:20:39.196Z,97.80
2019-03-27T19:23:20.583Z,98.10
2019-03-27T19:26:02.664Z,98.20
2019-03-27T19:28:44.431Z,97.90
2019-03-27T19:31:28.920Z,98.20
2019-03-27T19:36:54.948Z,98.30
2019-03-27T19:48:13.063Z,98.40
2019-03-27T19:50:53.996Z,98.50
2019-03-27T19:53:35.443Z,98.60
2019-03-27T19:56:05.920Z,98.70
2019-03-27T19:58:55.037Z,98.80
2019-03-27T20:01:44.278Z,99.00
2019-03-27T20:04:33.358Z,99.30
2019-03-27T20:10:03.235Z,99.40
2019-03-27T20:12:45.039Z,99.50
2019-03-27T20:15:26.235Z,99.20
2019-03-27T20:17:56.917Z,99.00
2019-03-27T20:20:46.505Z,99.10
2019-03-27T20:26:29.685Z,99.00
2019-03-27T20:29:18.767Z,99.00
2019-03-27T20:32:09.492Z,99.20
2019-03-27T20:34:58.600Z,99.30
2019-03-27T20:37:39.892Z,99.50
2019-03-27T20:40:21.290Z,99.40
2019-03-27T20:51:51.260Z,99.40
2019-03-27T20:54:33.153Z,98.90
2019-03-27T20:57:14.814Z,98.90
2019-03-27T20:59:57.585Z,99.10
2019-03-27T21:02:39.076Z,99.10
2019-03-27T21:08:07.741Z,99.20
2019-03-27T21:10:38.288Z,99.40
2019-03-27T21:16:28.690Z,99.20
2019-03-27T21:19:17.781Z,99.40
2019-03-27T21:22:07.012Z,99.40
2019-03-27T21:27:47.366Z,99.80
2019-03-27T21:30:36.968Z,99.80
2019-03-27T21:33:25.674Z,99.80
2019-03-27T21:36:14.616Z,99.40
2019-03-27T21:41:47.551Z,99.20
2019-03-27T21:44:29.019Z,99.30
2019-03-27T21:47:10.231Z,99.20
2019-03-27T21:52:35.410Z,99.90
2019-03-27T21:58:01.890Z,99.90
2019-03-27T22:00:42.706Z,99.90
2019-03-27T22:03:24.295Z,99.90
2019-03-27T22:06:05.927Z,99.90
2019-03-27T22:08:47.818Z,99.90
2019-03-27T22:14:16.585Z,99.90
2019-03-27T22:16:57.867Z,99.90
2019-03-27T22:19:39.502Z,99.90
2019-03-27T22:22:20.921Z,99.90
2019-03-27T22:25:02.885Z,99.90
2019-03-27T22:30:28.576Z,99.90
2019-03-27T22:33:10.096Z,99.90
2019-03-27T22:35:51.151Z,99.90
2019-03-27T22:41:18.808Z,99.90
2019-03-27T22:44:02.588Z,99.90
2019-03-27T22:46:45.927Z,99.90
2019-03-27T22:55:02.112Z,99.90
2019-03-27T22:57:45.884Z,99.90
2019-03-27T23:03:22.535Z,99.90
2019-03-27T23:06:04.083Z,99.90
2019-03-27T23:08:48.273Z,99.90
2019-03-27T23:16:59.602Z,99.90
2019-03-27T23:22:25.857Z,99.90
2019-03-27T23:25:07.727Z,99.90
2019-03-27T23:33:26.200Z,99.90
2019-03-27T23:36:07.606Z,99.90
2019-03-27T23:38:49.466Z,99.90
2019-03-27T23:41:30.775Z,99.90
2019-03-27T23:46:57.362Z,99.90
2019-03-27T23:49:38.318Z,99.90
2019-03-27T23:52:19.669Z,99.90
2019-03-27T23:55:01.262Z,99.90
